Time;durP1;ratioP1;P1;durP2;ratioP2;P2;SDS_P1;SDS_P2;PMS_P1;PMS_P2;Temp;Humidity;BMP_temperature;BMP_pressure;BME280_temperature;BME280_humidity;BME280_pressure;Samples;Min_cycle;Max_cycle;Signal;HPM_P1;HPM_P2
2023/09/03 00:00:13;;;;;;;;;;;18.40;75.80;;;;;;5094730;28;19988;-68
2023/09/03 00:02:38;;;;;;;;;;;18.40;75.80;;;;;;5112607;28;20283;-68
2023/09/03 00:05:04;;;;;;;;;;;18.40;75.80;;;;;;5112635;28;19923;-68
2023/09/03 00:07:29;;;;;;;;;;;18.40;75.80;;;;;;5112530;28;19942;-68
2023/09/03 00:09:55;;;;;;;;;;;18.40;75.80;;;;;;5094717;28;19924;-69
2023/09/03 00:12:20;;;;;;;;;;;18.40;75.80;;;;;;5094191;28;19926;-68
2023/09/03 00:14:49;;;;;;;;;;;18.40;75.80;;;;;;5128359;28;19919;-68
2023/09/03 00:17:14;;;;;;;;;;;18.40;75.80;;;;;;5094063;28;19928;-70
2023/09/03 00:19:41;;;;;;;;;;;18.40;75.80;;;;;;5094300;28;20015;-68
2023/09/03 00:22:06;;;;;;;;;;;18.40;75.80;;;;;;5094438;28;20375;-67
2023/09/03 00:24:33;;;;;;;;;;;18.40;75.80;;;;;;5112415;28;19934;-68
2023/09/03 00:26:58;;;;;;;;;;;18.40;75.70;;;;;;5094352;28;20325;-68
2023/09/03 00:29:24;;;;;;;;;;;18.40;75.80;;;;;;5128579;28;19924;-67
2023/09/03 00:31:49;;;;;;;;;;;18.40;75.80;;;;;;5094044;28;20272;-71
2023/09/03 00:34:15;;;;;;;;;;;18.30;75.70;;;;;;5112361;28;19942;-68
2023/09/03 00:36:40;;;;;;;;;;;18.30;75.70;;;;;;5112032;28;19924;-72
2023/09/03 00:39:06;;;;;;;;;;;18.40;75.70;;;;;;5128025;28;19920;-68
2023/09/03 00:41:32;;;;;;;;;;;18.30;75.70;;;;;;5094477;28;20385;-69
2023/09/03 00:43:58;;;;;;;;;;;18.30;75.70;;;;;;5112399;28;20013;-70
2023/09/03 00:46:23;;;;;;;;;;;18.30;75.60;;;;;;5115901;28;19926;-67
2023/09/03 00:48:49;;;;;;;;;;;18.30;75.70;;;;;;5097807;28;19980;-67
2023/09/03 00:51:15;;;;;;;;;;;18.30;75.70;;;;;;5097632;28;19923;-71
2023/09/03 00:53:43;;;;;;;;;;;18.30;75.70;;;;;;5132003;27;19920;-69
2023/09/03 00:56:10;;;;;;;;;;;18.30;75.60;;;;;;5115672;28;19920;-69
2023/09/03 00:58:36;;;;;;;;;;;18.30;75.60;;;;;;5097258;28;19977;-67
2023/09/03 01:01:02;;;;;;;;;;;18.30;75.60;;;;;;5115784;28;19976;-71
2023/09/03 01:03:28;;;;;;;;;;;18.30;75.60;;;;;;5097478;28;19920;-68
2023/09/03 01:05:54;;;;;;;;;;;18.30;75.60;;;;;;5097346;28;19930;-70
2023/09/03 01:08:19;;;;;;;;;;;18.30;75.50;;;;;;5097159;28;19926;-70
2023/09/03 01:16:10;;;;;;;;;;;18.30;75.60;;;;;;5110373;27;19934;-68
2023/09/03 01:18:37;;;;;;;;;;;18.30;75.50;;;;;;5108915;28;19920;-68
2023/09/03 01:29:04;;;;;;;;;;;18.30;75.50;;;;;;5089813;28;19944;-68
2023/09/03 01:31:30;;;;;;;;;;;18.20;75.40;;;;;;5088639;28;20003;-68
2023/09/03 01:34:01;;;;;;;;;;;18.20;75.40;;;;;;5088409;28;20012;-68
2023/09/03 01:36:28;;;;;;;;;;;18.20;75.40;;;;;;5088594;28;20407;-70
2023/09/03 01:38:54;;;;;;;;;;;18.20;75.40;;;;;;5088783;28;19927;-68
2023/09/03 01:41:19;;;;;;;;;;;18.20;75.40;;;;;;5088441;28;19921;-69
2023/09/03 01:43:45;;;;;;;;;;;18.20;75.40;;;;;;5088722;28;20295;-69
2023/09/03 01:46:13;;;;;;;;;;;18.20;75.40;;;;;;5089529;28;20010;-70
2023/09/03 01:48:44;;;;;;;;;;;18.20;75.40;;;;;;5089405;28;20027;-67
2023/09/03 01:51:28;;;;;;;;;;;18.20;75.30;;;;;;5089669;28;19972;-70
2023/09/03 01:54:14;;;;;;;;;;;18.20;75.30;;;;;;5088554;28;20432;-68
2023/09/03 01:56:42;;;;;;;;;;;18.20;75.30;;;;;;5105187;28;19928;-68
2023/09/03 01:59:13;;;;;;;;;;;18.20;75.40;;;;;;5088039;28;19920;-70
2023/09/03 02:01:39;;;;;;;;;;;18.20;75.30;;;;;;5088010;28;19954;-68
2023/09/03 02:04:04;;;;;;;;;;;18.20;75.30;;;;;;5088312;28;19967;-68
2023/09/03 02:06:30;;;;;;;;;;;18.20;75.30;;;;;;5088221;28;19920;-67
2023/09/03 02:08:55;;;;;;;;;;;18.10;75.20;;;;;;5089198;28;19928;-70
2023/09/03 02:11:21;;;;;;;;;;;18.10;76.00;;;;;;5089162;28;20016;-70
2023/09/03 02:13:46;;;;;;;;;;;18.10;75.20;;;;;;5088171;28;19927;-70
2023/09/03 02:16:12;;;;;;;;;;;18.10;76.00;;;;;;5087693;28;19920;-68
2023/09/03 02:18:37;;;;;;;;;;;18.10;75.20;;;;;;5089252;28;19971;-68
2023/09/03 02:21:03;;;;;;;;;;;18.10;75.20;;;;;;5088966;28;19927;-70
2023/09/03 02:23:28;;;;;;;;;;;18.10;75.30;;;;;;5088985;28;19924;-71
2023/09/03 02:26:01;;;;;;;;;;;18.10;75.20;;;;;;5087543;28;19967;-71
2023/09/03 02:28:27;;;;;;;;;;;18.10;75.20;;;;;;5104153;28;19924;-70
2023/09/03 02:30:53;;;;;;;;;;;18.10;75.20;;;;;;5109035;28;20060;-69
2023/09/03 02:33:18;;;;;;;;;;;18.10;75.20;;;;;;5091069;28;19927;-70
2023/09/03 02:35:44;;;;;;;;;;;18.10;75.20;;;;;;5091105;28;19963;-67
2023/09/03 02:38:09;;;;;;;;;;;18.10;75.20;;;;;;5108447;28;20450;-67
2023/09/03 02:40:36;;;;;;;;;;;18.10;75.20;;;;;;5094955;28;19952;-69
2023/09/03 02:43:03;;;;;;;;;;;18.10;75.20;;;;;;5095294;28;19920;-71
2023/09/03 02:45:28;;;;;;;;;;;18.10;75.30;;;;;;5095167;28;19924;-68
2023/09/03 02:47:54;;;;;;;;;;;18.10;75.20;;;;;;5095077;28;19924;-68
2023/09/03 02:50:19;;;;;;;;;;;18.10;75.20;;;;;;5094216;28;20019;-68
2023/09/03 02:52:45;;;;;;;;;;;18.10;75.20;;;;;;5077269;28;19924;-70
2023/09/03 02:55:12;;;;;;;;;;;18.10;75.20;;;;;;5095066;28;19927;-70
2023/09/03 02:57:38;;;;;;;;;;;18.10;75.20;;;;;;5077081;28;20280;-68
2023/09/03 03:00:04;;;;;;;;;;;18.00;75.10;;;;;;5076789;28;19927;-71
2023/09/03 03:02:29;;;;;;;;;;;18.00;75.10;;;;;;5076904;28;19927;-70
2023/09/03 03:04:55;;;;;;;;;;;18.00;75.20;;;;;;5076761;28;20333;-69
2023/09/03 03:07:20;;;;;;;;;;;18.00;75.10;;;;;;5076728;28;19989;-68
2023/09/03 03:09:50;;;;;;;;;;;18.00;75.10;;;;;;5076993;28;19920;-68
2023/09/03 03:12:15;;;;;;;;;;;18.00;75.10;;;;;;5076575;28;20438;-70
2023/09/03 03:14:40;;;;;;;;;;;18.00;75.10;;;;;;5076846;28;19970;-68
2023/09/03 03:17:06;;;;;;;;;;;18.00;75.10;;;;;;5076440;28;20353;-68
2023/09/03 03:19:32;;;;;;;;;;;18.00;75.10;;;;;;5076815;28;19934;-68
2023/09/03 03:21:57;;;;;;;;;;;18.00;75.10;;;;;;5076505;28;19920;-70
2023/09/03 03:24:22;;;;;;;;;;;18.00;75.10;;;;;;5076683;28;20333;-68
2023/09/03 03:26:48;;;;;;;;;;;18.00;75.00;;;;;;5094228;28;19942;-68
2023/09/03 03:29:13;;;;;;;;;;;18.00;75.00;;;;;;5076218;28;19951;-70
2023/09/03 03:31:40;;;;;;;;;;;18.00;75.00;;;;;;5094268;28;19965;-68
2023/09/03 03:34:05;;;;;;;;;;;17.90;75.00;;;;;;5076112;28;19924;-68
2023/09/03 03:36:32;;;;;;;;;;;18.00;75.00;;;;;;5076135;28;19920;-68
2023/09/03 03:38:57;;;;;;;;;;;17.90;75.00;;;;;;5076299;28;19928;-70
2023/09/03 03:41:23;;;;;;;;;;;17.90;74.90;;;;;;5076032;28;19920;-68
2023/09/03 03:43:49;;;;;;;;;;;17.90;74.90;;;;;;5094070;28;19920;-68
2023/09/03 03:46:15;;;;;;;;;;;17.90;74.90;;;;;;5076173;28;19969;-68
2023/09/03 03:48:41;;;;;;;;;;;18.00;74.90;;;;;;5075801;28;20422;-68
2023/09/03 03:51:06;;;;;;;;;;;18.00;74.90;;;;;;5075175;28;19967;-70
2023/09/03 03:53:32;;;;;;;;;;;17.90;74.90;;;;;;5076134;28;19920;-68
2023/09/03 03:56:06;;;;;;;;;;;17.90;74.90;;;;;;5075778;28;20403;-69
2023/09/03 03:58:32;;;;;;;;;;;17.90;74.90;;;;;;5075852;28;19920;-69
2023/09/03 04:00:59;;;;;;;;;;;17.90;74.90;;;;;;5075655;28;20019;-68
2023/09/03 04:03:27;;;;;;;;;;;17.90;74.80;;;;;;5075949;28;20002;-69
2023/09/03 04:06:00;;;;;;;;;;;17.90;74.80;;;;;;5075455;28;19920;-68
2023/09/03 04:08:26;;;;;;;;;;;17.90;74.90;;;;;;5075417;28;19928;-68
2023/09/03 04:10:59;;;;;;;;;;;17.90;74.80;;;;;;5092544;28;20011;-68
2023/09/03 04:13:26;;;;;;;;;;;17.90;74.80;;;;;;5075660;28;19924;-68
2023/09/03 04:15:51;;;;;;;;;;;17.90;74.80;;;;;;5075571;28;19920;-68
2023/09/03 04:18:20;;;;;;;;;;;17.90;74.70;;;;;;5093670;28;19935;-70
2023/09/03 04:20:46;;;;;;;;;;;17.80;74.70;;;;;;5093524;28;19927;-69
2023/09/03 04:23:12;;;;;;;;;;;17.90;74.70;;;;;;5092400;28;19920;-70
2023/09/03 04:25:37;;;;;;;;;;;17.80;74.70;;;;;;5075168;28;20428;-68
2023/09/03 04:28:03;;;;;;;;;;;17.80;74.60;;;;;;5074963;28;19931;-70
2023/09/03 04:30:28;;;;;;;;;;;17.80;74.60;;;;;;5093097;28;19928;-70
2023/09/03 04:32:54;;;;;;;;;;;17.80;74.60;;;;;;5093582;28;19980;-68
2023/09/03 04:35:19;;;;;;;;;;;17.80;74.60;;;;;;5075194;28;20291;-70
2023/09/03 04:37:45;;;;;;;;;;;17.80;74.60;;;;;;5091879;28;20006;-68
2023/09/03 04:40:10;;;;;;;;;;;17.80;74.60;;;;;;5075021;28;19920;-68
2023/09/03 04:42:37;;;;;;;;;;;17.80;74.60;;;;;;5074858;28;19979;-68
2023/09/03 04:45:03;;;;;;;;;;;17.80;74.60;;;;;;5074680;28;19969;-69
2023/09/03 04:47:29;;;;;;;;;;;17.80;74.60;;;;;;5091668;28;20010;-68
2023/09/03 04:49:54;;;;;;;;;;;17.80;74.60;;;;;;5074725;28;19927;-69
2023/09/03 04:52:20;;;;;;;;;;;17.80;74.60;;;;;;5093100;28;19920;-70
2023/09/03 04:54:45;;;;;;;;;;;17.80;74.60;;;;;;5091600;28;19924;-68
2023/09/03 04:57:11;;;;;;;;;;;17.80;74.60;;;;;;5075089;28;20275;-68
2023/09/03 04:59:36;;;;;;;;;;;17.80;74.60;;;;;;5074602;28;20484;-68
2023/09/03 05:02:02;;;;;;;;;;;17.80;74.60;;;;;;5091432;28;19931;-68
2023/09/03 05:04:28;;;;;;;;;;;17.80;74.60;;;;;;5074870;28;20022;-70
2023/09/03 05:06:53;;;;;;;;;;;17.70;74.50;;;;;;5092666;28;19920;-68
2023/09/03 05:09:18;;;;;;;;;;;17.80;74.50;;;;;;5074841;28;19927;-69
2023/09/03 05:11:44;;;;;;;;;;;17.70;74.50;;;;;;5074379;28;20340;-68
2023/09/03 05:14:09;;;;;;;;;;;17.70;74.40;;;;;;5074811;28;19927;-68
2023/09/03 05:16:35;;;;;;;;;;;17.80;74.50;;;;;;5074589;28;20375;-68
2023/09/03 05:19:04;;;;;;;;;;;17.70;74.40;;;;;;5093018;28;20048;-69
2023/09/03 05:21:31;;;;;;;;;;;17.70;74.40;;;;;;5074638;28;20019;-68
2023/09/03 05:23:57;;;;;;;;;;;17.70;74.30;;;;;;5074839;28;20325;-70
2023/09/03 05:26:22;;;;;;;;;;;17.80;75.20;;;;;;5074306;28;19920;-68
2023/09/03 05:28:47;;;;;;;;;;;17.70;74.30;;;;;;5092122;28;19931;-68
2023/09/03 05:31:13;;;;;;;;;;;17.70;75.00;;;;;;5092354;28;20006;-68
2023/09/03 05:33:39;;;;;;;;;;;17.70;74.30;;;;;;5074578;28;20347;-69
2023/09/03 05:36:05;;;;;;;;;;;17.70;74.30;;;;;;5074352;28;19935;-68
2023/09/03 05:38:30;;;;;;;;;;;17.70;74.30;;;;;;5074428;28;19920;-68
2023/09/03 05:40:58;;;;;;;;;;;17.70;74.30;;;;;;5074491;28;19920;-68
2023/09/03 05:43:24;;;;;;;;;;;17.70;74.20;;;;;;5074436;28;19927;-68
2023/09/03 05:45:50;;;;;;;;;;;17.70;74.20;;;;;;5074423;28;19920;-68
2023/09/03 05:48:16;;;;;;;;;;;17.70;74.20;;;;;;5074112;28;19928;-68
2023/09/03 05:50:41;;;;;;;;;;;17.70;74.30;;;;;;5074507;28;20339;-69
2023/09/03 05:53:07;;;;;;;;;;;17.70;74.20;;;;;;5074091;28;19920;-68
2023/09/03 05:55:32;;;;;;;;;;;17.70;74.20;;;;;;5074208;28;19969;-68
2023/09/03 05:57:58;;;;;;;;;;;17.70;74.30;;;;;;5092154;28;20291;-68
2023/09/03 06:00:23;;;;;;;;;;;17.70;74.20;;;;;;5074331;28;19927;-69
2023/09/03 06:02:49;;;;;;;;;;;17.70;74.20;;;;;;5091937;28;19924;-68
2023/09/03 06:05:14;;;;;;;;;;;17.70;74.20;;;;;;5074058;28;19921;-68
2023/09/03 06:07:40;;;;;;;;;;;17.70;74.20;;;;;;5092125;28;19947;-68
2023/09/03 06:10:06;;;;;;;;;;;17.70;74.20;;;;;;5074257;28;19938;-68
2023/09/03 06:12:31;;;;;;;;;;;17.70;74.20;;;;;;5092529;28;20385;-68
2023/09/03 06:14:57;;;;;;;;;;;17.70;74.20;;;;;;5076304;28;19920;-68
2023/09/03 06:17:22;;;;;;;;;;;17.70;74.20;;;;;;5077924;28;20260;-68
2023/09/03 06:19:48;;;;;;;;;;;17.60;74.20;;;;;;5095796;28;20436;-68
2023/09/03 06:22:14;;;;;;;;;;;17.70;74.20;;;;;;5095721;28;19973;-68
2023/09/03 06:24:40;;;;;;;;;;;17.70;74.20;;;;;;5077471;28;19923;-68
2023/09/03 06:27:05;;;;;;;;;;;17.70;74.20;;;;;;5094246;28;20283;-68
2023/09/03 06:29:31;;;;;;;;;;;17.60;74.10;;;;;;5095615;28;19920;-68
2023/09/03 06:31:56;;;;;;;;;;;17.70;74.20;;;;;;5077688;28;20368;-68
2023/09/03 06:34:22;;;;;;;;;;;17.70;74.10;;;;;;5094052;28;19927;-69
2023/09/03 06:36:48;;;;;;;;;;;17.70;74.10;;;;;;5077663;28;19973;-68
2023/09/03 06:39:13;;;;;;;;;;;17.70;74.10;;;;;;5095487;28;19920;-68
2023/09/03 06:41:39;;;;;;;;;;;17.70;74.10;;;;;;5094433;28;19920;-68
2023/09/03 06:44:04;;;;;;;;;;;17.70;74.10;;;;;;5077119;28;19920;-68
2023/09/03 06:46:30;;;;;;;;;;;17.70;74.10;;;;;;5093955;28;19920;-68
2023/09/03 06:48:56;;;;;;;;;;;17.70;74.10;;;;;;5077008;28;19936;-68
2023/09/03 06:51:21;;;;;;;;;;;17.70;74.10;;;;;;5093865;28;19992;-68
2023/09/03 06:53:46;;;;;;;;;;;17.70;74.10;;;;;;5095350;28;20287;-68
2023/09/03 06:56:12;;;;;;;;;;;17.70;74.10;;;;;;5094142;28;20010;-68
2023/09/03 06:58:38;;;;;;;;;;;17.70;74.10;;;;;;5093711;28;20291;-68
2023/09/03 07:01:04;;;;;;;;;;;17.70;74.10;;;;;;5077093;28;19920;-68
2023/09/03 07:03:30;;;;;;;;;;;17.70;74.10;;;;;;5093606;28;19920;-68
2023/09/03 07:05:56;;;;;;;;;;;17.70;74.00;;;;;;5076673;28;20385;-68
2023/09/03 07:08:21;;;;;;;;;;;17.70;74.00;;;;;;5076756;28;19924;-69
2023/09/03 07:10:47;;;;;;;;;;;17.70;74.10;;;;;;5094799;28;20387;-68
2023/09/03 07:13:12;;;;;;;;;;;17.70;74.00;;;;;;5076926;28;19926;-68
2023/09/03 07:15:38;;;;;;;;;;;17.70;74.00;;;;;;5076558;28;20371;-68
2023/09/03 07:18:04;;;;;;;;;;;17.70;74.00;;;;;;5094748;28;19920;-68
2023/09/03 07:20:29;;;;;;;;;;;17.70;74.00;;;;;;5076390;28;20192;-68
2023/09/03 07:22:54;;;;;;;;;;;17.70;74.00;;;;;;5094600;28;19973;-70
2023/09/03 07:25:20;;;;;;;;;;;17.70;74.00;;;;;;5076505;28;20260;-68
2023/09/03 07:27:45;;;;;;;;;;;17.70;74.00;;;;;;5094178;28;19928;-68
2023/09/03 07:30:11;;;;;;;;;;;17.70;74.00;;;;;;5076350;28;19927;-68
2023/09/03 07:32:37;;;;;;;;;;;17.70;74.00;;;;;;5076041;28;19927;-68
2023/09/03 07:35:04;;;;;;;;;;;17.70;74.00;;;;;;5076392;28;19927;-68
2023/09/03 07:37:30;;;;;;;;;;;17.70;74.00;;;;;;5094182;28;20288;-68
2023/09/03 07:39:55;;;;;;;;;;;17.70;74.00;;;;;;5076439;28;19930;-68
2023/09/03 07:42:24;;;;;;;;;;;17.70;74.00;;;;;;5076333;28;19967;-68
2023/09/03 07:44:49;;;;;;;;;;;17.70;74.00;;;;;;5076278;28;19973;-68
2023/09/03 07:47:15;;;;;;;;;;;17.70;74.00;;;;;;5075823;28;20386;-68
2023/09/03 07:49:42;;;;;;;;;;;17.70;74.00;;;;;;5075961;28;19927;-68
2023/09/03 07:52:07;;;;;;;;;;;17.70;74.00;;;;;;5075744;28;19974;-68
2023/09/03 07:54:33;;;;;;;;;;;17.70;74.00;;;;;;5076074;28;19920;-68
2023/09/03 07:56:58;;;;;;;;;;;17.70;74.00;;;;;;5075649;28;19971;-68
2023/09/03 07:59:24;;;;;;;;;;;17.70;74.00;;;;;;5075732;28;19928;-68
2023/09/03 08:01:49;;;;;;;;;;;17.70;74.00;;;;;;5075853;28;19924;-68
2023/09/03 08:04:14;;;;;;;;;;;17.70;74.00;;;;;;5092832;28;20407;-68
2023/09/03 08:06:40;;;;;;;;;;;17.70;74.00;;;;;;5075451;28;20056;-68
2023/09/03 08:09:06;;;;;;;;;;;17.70;74.00;;;;;;5075436;28;19924;-68
2023/09/03 08:11:31;;;;;;;;;;;17.80;74.00;;;;;;5075479;28;19931;-68
2023/09/03 08:13:57;;;;;;;;;;;17.80;74.00;;;;;;5092171;28;19921;-68
2023/09/03 08:16:23;;;;;;;;;;;17.70;74.00;;;;;;5075723;28;20394;-68
2023/09/03 08:18:49;;;;;;;;;;;17.80;74.00;;;;;;5075581;28;19970;-67
2023/09/03 08:21:14;;;;;;;;;;;17.70;74.00;;;;;;5093396;28;19920;-68
2023/09/03 08:23:41;;;;;;;;;;;17.80;74.10;;;;;;5092399;28;19920;-68
2023/09/03 08:26:07;;;;;;;;;;;17.70;74.00;;;;;;5093324;28;20404;-69
2023/09/03 08:28:32;;;;;;;;;;;17.70;74.00;;;;;;5091689;28;19960;-68
2023/09/03 08:30:58;;;;;;;;;;;17.80;74.10;;;;;;5075138;28;19926;-67
2023/09/03 08:33:23;;;;;;;;;;;17.80;74.10;;;;;;5074940;28;19963;-68
2023/09/03 08:35:49;;;;;;;;;;;17.70;74.00;;;;;;5093243;28;19924;-67
2023/09/03 08:38:14;;;;;;;;;;;17.80;74.10;;;;;;5074637;28;19920;-67
2023/09/03 08:40:41;;;;;;;;;;;17.80;74.00;;;;;;5075285;28;19926;-68
2023/09/03 08:43:07;;;;;;;;;;;17.80;74.10;;;;;;5074803;28;20006;-68
2023/09/03 08:45:34;;;;;;;;;;;17.80;74.00;;;;;;5075142;28;19965;-68
2023/09/03 08:47:59;;;;;;;;;;;17.80;74.00;;;;;;5074683;28;20166;-68
2023/09/03 08:50:26;;;;;;;;;;;17.80;74.00;;;;;;5075103;28;19930;-67
2023/09/03 08:52:52;;;;;;;;;;;17.80;74.00;;;;;;5091525;28;19920;-68
2023/09/03 08:55:18;;;;;;;;;;;17.80;73.90;;;;;;5092777;28;20019;-70
2023/09/03 08:57:43;;;;;;;;;;;17.90;74.00;;;;;;5074950;28;19921;-68
2023/09/03 09:00:12;;;;;;;;;;;17.90;74.00;;;;;;5091525;28;19927;-68
2023/09/03 09:02:38;;;;;;;;;;;17.90;74.00;;;;;;5074526;28;20319;-68
2023/09/03 09:05:05;;;;;;;;;;;17.90;73.90;;;;;;5074844;28;19941;-68
2023/09/03 09:07:30;;;;;;;;;;;17.90;73.80;;;;;;5074368;28;19927;-69
2023/09/03 09:09:58;;;;;;;;;;;17.90;73.80;;;;;;5074694;28;19928;-67
2023/09/03 09:12:27;;;;;;;;;;;17.90;73.70;;;;;;5074511;28;19924;-69
2023/09/03 09:14:58;;;;;;;;;;;17.90;73.70;;;;;;5074766;28;20002;-68
2023/09/03 09:17:24;;;;;;;;;;;17.90;73.70;;;;;;5074434;28;19920;-68
2023/09/03 09:19:49;;;;;;;;;;;17.90;73.70;;;;;;5074439;28;19920;-67
2023/09/03 09:22:15;;;;;;;;;;;17.90;73.70;;;;;;5074676;28;19924;-68
2023/09/03 09:24:42;;;;;;;;;;;17.90;73.60;;;;;;5074586;28;19924;-68
2023/09/03 09:27:16;;;;;;;;;;;17.90;73.70;;;;;;5074048;28;19931;-68
2023/09/03 09:29:42;;;;;;;;;;;17.90;73.70;;;;;;5074539;28;19924;-67
2023/09/03 09:32:23;;;;;;;;;;;17.90;73.70;;;;;;5074688;28;20429;-68
2023/09/03 09:34:48;;;;;;;;;;;17.90;73.60;;;;;;5074170;28;19963;-68
2023/09/03 09:37:16;;;;;;;;;;;17.90;73.60;;;;;;5074652;28;19967;-68
2023/09/03 09:39:43;;;;;;;;;;;17.90;73.60;;;;;;5074193;28;19924;-69
2023/09/03 09:42:10;;;;;;;;;;;17.90;73.50;;;;;;5074570;28;20033;-68
2023/09/03 09:44:36;;;;;;;;;;;17.90;73.50;;;;;;5092381;28;19967;-68
2023/09/03 09:47:17;;;;;;;;;;;17.90;73.50;;;;;;5074115;28;20338;-68
2023/09/03 09:49:43;;;;;;;;;;;17.90;73.40;;;;;;5094403;28;19967;-68
2023/09/03 09:52:10;;;;;;;;;;;17.90;73.40;;;;;;5078157;28;20440;-68
2023/09/03 09:54:37;;;;;;;;;;;17.90;73.30;;;;;;5096477;28;19924;-68
2023/09/03 09:57:08;;;;;;;;;;;17.90;73.30;;;;;;5096210;28;19965;-68
2023/09/03 09:59:34;;;;;;;;;;;18.00;73.50;;;;;;5078403;28;19920;-68
2023/09/03 10:02:09;;;;;;;;;;;18.00;73.40;;;;;;5077839;28;19965;-68
2023/09/03 10:04:38;;;;;;;;;;;18.00;73.40;;;;;;5095187;28;20440;-68
2023/09/03 10:07:04;;;;;;;;;;;18.00;73.30;;;;;;5078007;28;20325;-68
2023/09/03 10:09:30;;;;;;;;;;;18.00;73.30;;;;;;5078105;28;19924;-68
2023/09/03 10:11:57;;;;;;;;;;;18.00;73.40;;;;;;5096334;28;19931;-67
2023/09/03 10:14:22;;;;;;;;;;;18.00;73.30;;;;;;5077989;28;19969;-68
2023/09/03 10:16:49;;;;;;;;;;;18.00;73.40;;;;;;5094554;28;20350;-68
2023/09/03 10:19:16;;;;;;;;;;;18.00;73.30;;;;;;5077657;28;19920;-68
2023/09/03 10:21:42;;;;;;;;;;;18.00;73.30;;;;;;5077803;28;19920;-68
2023/09/03 10:24:08;;;;;;;;;;;18.00;73.20;;;;;;5095978;28;19920;-68
2023/09/03 10:26:37;;;;;;;;;;;18.00;73.20;;;;;;5094668;28;19928;-68
2023/09/03 10:29:04;;;;;;;;;;;18.00;73.20;;;;;;5054165;28;19948;-68
2023/09/03 10:31:31;;;;;;;;;;;18.00;73.20;;;;;;5070882;28;19921;-68
2023/09/03 10:33:56;;;;;;;;;;;18.00;73.20;;;;;;5053975;28;19920;-68
2023/09/03 10:36:22;;;;;;;;;;;18.00;73.20;;;;;;5053988;28;19921;-68
2023/09/03 10:38:47;;;;;;;;;;;18.10;73.30;;;;;;5055293;28;20299;-68
2023/09/03 10:41:15;;;;;;;;;;;18.10;73.20;;;;;;5054423;28;19927;-70
2023/09/03 10:43:40;;;;;;;;;;;18.10;73.10;;;;;;5070464;28;19928;-69
2023/09/03 10:46:06;;;;;;;;;;;18.10;73.30;;;;;;5055009;28;20303;-67
2023/09/03 10:48:34;;;;;;;;;;;18.00;73.10;;;;;;5055109;28;19940;-68
2023/09/03 10:51:00;;;;;;;;;;;18.10;73.20;;;;;;5055231;28;20038;-68
2023/09/03 10:53:45;;;;;;;;;;;18.10;73.20;;;;;;5053675;28;20442;-68
2023/09/03 10:56:13;;;;;;;;;;;18.10;73.20;;;;;;5054784;28;19921;-68
2023/09/03 11:01:31;;;;;;;;;;;18.10;73.20;;;;;;5130842;27;19912;-68
2023/09/03 11:03:58;;;;;;;;;;;18.00;73.00;;;;;;5129342;28;19965;-68
2023/09/03 11:06:25;;;;;;;;;;;18.10;73.20;;;;;;5164045;27;19926;-67
2023/09/03 11:11:46;;;;;;;;;;;18.10;73.20;;;;;;5110284;27;20047;-67
2023/09/03 11:14:13;;;;;;;;;;;18.10;73.10;;;;;;5109171;28;19926;-69
2023/09/03 11:16:40;;;;;;;;;;;18.10;73.20;;;;;;5109243;28;19931;-69
2023/09/03 11:19:07;;;;;;;;;;;18.10;73.30;;;;;;5108779;28;20398;-68
2023/09/03 11:21:33;;;;;;;;;;;18.10;73.30;;;;;;5109078;28;20405;-68
2023/09/03 11:26:39;;;;;;;;;;;18.10;73.30;;;;;;5110344;27;20278;-68
2023/09/03 11:29:17;;;;;;;;;;;18.10;73.20;;;;;;5108890;28;19920;-67
2023/09/03 11:31:47;;;;;;;;;;;18.10;73.30;;;;;;5109250;28;19919;-68
2023/09/03 11:34:16;;;;;;;;;;;18.10;73.20;;;;;;5108765;28;19959;-68
2023/09/03 11:36:41;;;;;;;;;;;18.10;73.30;;;;;;5109061;28;19931;-68
2023/09/03 11:39:12;;;;;;;;;;;18.10;73.30;;;;;;5091796;28;19920;-69
2023/09/03 11:41:38;;;;;;;;;;;18.10;73.30;;;;;;5108698;28;19927;-69
2023/09/03 11:44:03;;;;;;;;;;;18.10;73.20;;;;;;5109001;28;19920;-68
2023/09/03 11:46:29;;;;;;;;;;;18.10;73.50;;;;;;5109007;28;20275;-68
2023/09/03 11:48:55;;;;;;;;;;;18.10;73.30;;;;;;5108579;28;20414;-69
2023/09/03 11:51:22;;;;;;;;;;;18.10;73.50;;;;;;5108481;28;19980;-68
2023/09/03 11:53:49;;;;;;;;;;;18.10;73.30;;;;;;5108580;28;20045;-68
2023/09/03 11:56:16;;;;;;;;;;;18.10;73.40;;;;;;5108326;28;20018;-69
2023/09/03 11:58:43;;;;;;;;;;;18.10;73.30;;;;;;5108348;28;20393;-68
2023/09/03 12:01:08;;;;;;;;;;;18.10;73.40;;;;;;5109632;28;19920;-69
2023/09/03 12:03:35;;;;;;;;;;;18.10;73.40;;;;;;5108583;28;19927;-69
2023/09/03 12:06:02;;;;;;;;;;;18.10;73.40;;;;;;5108210;28;20371;-68
2023/09/03 12:08:29;;;;;;;;;;;18.10;73.50;;;;;;5108526;28;19994;-69
2023/09/03 12:10:55;;;;;;;;;;;18.10;73.30;;;;;;5109584;28;20410;-68
2023/09/03 12:13:37;;;;;;;;;;;18.10;73.50;;;;;;5108178;28;19924;-68
2023/09/03 12:16:07;;;;;;;;;;;18.10;73.40;;;;;;5109359;28;20020;-68
2023/09/03 12:18:33;;;;;;;;;;;18.10;73.50;;;;;;5109329;28;20345;-69
2023/09/03 12:20:59;;;;;;;;;;;18.10;73.40;;;;;;5107974;28;19927;-68
2023/09/03 12:23:26;;;;;;;;;;;18.10;73.40;;;;;;5108207;28;19979;-70
2023/09/03 12:25:51;;;;;;;;;;;18.10;73.50;;;;;;5107581;28;19928;-69
2023/09/03 12:28:17;;;;;;;;;;;18.20;73.50;;;;;;5108124;28;19920;-68
2023/09/03 12:33:47;;;;;;;;;;;18.10;73.50;;;;;;5110316;27;19916;-68
2023/09/03 12:36:13;;;;;;;;;;;18.10;73.40;;;;;;5108908;28;19920;-69
2023/09/03 12:38:46;;;;;;;;;;;18.20;73.50;;;;;;5109212;28;19920;-69
2023/09/03 12:41:12;;;;;;;;;;;18.20;73.50;;;;;;5108854;28;19958;-69
2023/09/03 12:43:37;;;;;;;;;;;18.20;73.60;;;;;;5108857;28;20053;-68
2023/09/03 12:46:03;;;;;;;;;;;18.20;73.40;;;;;;5108633;28;19920;-68
2023/09/03 12:48:29;;;;;;;;;;;18.20;73.40;;;;;;5108754;28;19926;-69
2023/09/03 12:50:54;;;;;;;;;;;18.20;73.40;;;;;;5108965;28;20329;-69
2023/09/03 12:53:20;;;;;;;;;;;18.20;73.30;;;;;;5109917;28;19928;-69
2023/09/03 12:55:45;;;;;;;;;;;18.20;73.50;;;;;;5108963;28;19978;-68
2023/09/03 12:58:12;;;;;;;;;;;18.20;73.40;;;;;;5108477;28;20311;-68
2023/09/03 13:00:38;;;;;;;;;;;18.20;73.30;;;;;;5108469;28;19920;-68
2023/09/03 13:03:04;;;;;;;;;;;18.20;73.30;;;;;;5109676;28;19927;-68
2023/09/03 13:05:29;;;;;;;;;;;18.20;73.30;;;;;;5108783;28;19943;-71
2023/09/03 13:07:54;;;;;;;;;;;18.20;73.50;;;;;;5109767;28;19924;-68
2023/09/03 13:10:20;;;;;;;;;;;18.20;73.30;;;;;;5108606;28;20014;-69
2023/09/03 13:12:45;;;;;;;;;;;18.20;73.40;;;;;;5108148;28;19924;-70
2023/09/03 13:15:12;;;;;;;;;;;18.30;73.40;;;;;;5109474;28;19920;-68
2023/09/03 13:17:37;;;;;;;;;;;18.30;73.40;;;;;;5108501;28;19970;-69
2023/09/03 13:20:03;;;;;;;;;;;18.20;73.30;;;;;;5109649;28;19963;-70
2023/09/03 13:22:28;;;;;;;;;;;18.20;73.70;;;;;;5108045;28;19947;-68
2023/09/03 13:24:54;;;;;;;;;;;18.30;73.40;;;;;;5108397;28;19920;-68
2023/09/03 13:27:19;;;;;;;;;;;18.30;73.60;;;;;;5109277;28;20299;-69
2023/09/03 13:29:45;;;;;;;;;;;18.30;73.40;;;;;;5108265;28;19927;-68
2023/09/03 13:32:10;;;;;;;;;;;18.30;73.50;;;;;;5107692;28;19928;-69
2023/09/03 13:34:37;;;;;;;;;;;18.30;73.50;;;;;;5107764;28;19926;-68
2023/09/03 13:37:03;;;;;;;;;;;18.30;73.60;;;;;;5109340;28;19920;-69
2023/09/03 13:39:28;;;;;;;;;;;18.30;73.50;;;;;;5108986;28;20378;-70
2023/09/03 13:41:54;;;;;;;;;;;18.30;73.40;;;;;;5107742;28;19924;-68
2023/09/03 13:44:19;;;;;;;;;;;18.30;73.70;;;;;;5097671;28;19920;-70
2023/09/03 13:46:44;;;;;;;;;;;18.30;73.50;;;;;;5093978;28;19920;-70
2023/09/03 13:49:13;;;;;;;;;;;18.30;73.60;;;;;;5094259;28;19920;-69
2023/09/03 13:51:39;;;;;;;;;;;18.30;73.60;;;;;;5093907;28;20398;-69
2023/09/03 13:54:05;;;;;;;;;;;18.30;73.60;;;;;;5095095;28;20403;-70
2023/09/03 13:56:30;;;;;;;;;;;18.30;73.60;;;;;;5095220;28;19977;-68
2023/09/03 13:58:56;;;;;;;;;;;18.30;73.60;;;;;;5093762;28;20014;-69
2023/09/03 14:01:21;;;;;;;;;;;18.30;73.60;;;;;;5095071;28;19920;-68
2023/09/03 14:03:47;;;;;;;;;;;18.30;73.70;;;;;;5093859;28;20023;-70
2023/09/03 14:06:12;;;;;;;;;;;18.30;73.70;;;;;;5093725;28;19928;-68
2023/09/03 14:08:38;;;;;;;;;;;18.30;73.70;;;;;;5093658;28;20260;-68
2023/09/03 14:11:03;;;;;;;;;;;18.40;73.80;;;;;;5093926;28;19932;-70
2023/09/03 14:13:29;;;;;;;;;;;18.40;73.70;;;;;;5093529;28;19924;-69
2023/09/03 14:15:55;;;;;;;;;;;18.30;73.70;;;;;;5094833;28;19962;-69
2023/09/03 14:18:20;;;;;;;;;;;18.30;73.70;;;;;;5093478;28;19924;-71
2023/09/03 14:20:47;;;;;;;;;;;18.40;73.70;;;;;;5093661;28;19924;-70
2023/09/03 14:23:13;;;;;;;;;;;18.40;73.80;;;;;;5094834;28;19920;-69
2023/09/03 14:25:38;;;;;;;;;;;18.40;73.90;;;;;;5093266;28;20401;-69
2023/09/03 14:28:04;;;;;;;;;;;18.40;73.90;;;;;;5094560;28;20061;-70
2023/09/03 14:30:30;;;;;;;;;;;18.40;73.90;;;;;;5094463;28;19985;-71
2023/09/03 14:32:55;;;;;;;;;;;18.40;73.90;;;;;;5108889;28;19930;-68
2023/09/03 14:35:21;;;;;;;;;;;18.40;73.90;;;;;;5114615;28;19924;-69